createdAt,value
2019-05-16T00:00:52.501Z,10.18
2019-05-16T00:01:52.433Z,10.31
2019-05-16T00:02:52.558Z,10.31
2019-05-16T00:03:52.385Z,10.26
2019-05-16T00:04:52.426Z,10.20
2019-05-16T00:05:54.510Z,10.20
2019-05-16T00:06:52.449Z,10.17
2019-05-16T00:07:52.368Z,10.20
2019-05-16T00:08:52.401Z,10.17
2019-05-16T00:09:52.330Z,10.32
2019-05-16T00:10:52.383Z,10.31
2019-05-16T00:11:52.302Z,10.28
2019-05-16T00:12:52.419Z,10.24
2019-05-16T00:13:52.280Z,10.20
2019-05-16T00:14:52.290Z,10.24
2019-05-16T00:15:52.277Z,10.18
2019-05-16T00:16:52.320Z,10.17
2019-05-16T00:17:52.260Z,10.17
2019-05-16T00:18:52.356Z,10.18
2019-05-16T00:19:52.210Z,10.22
2019-05-16T00:20:52.230Z,10.17
2019-05-16T00:21:52.183Z,10.14
2019-05-16T00:22:52.286Z,10.11
2019-05-16T00:23:52.161Z,10.26
2019-05-16T00:24:52.266Z,10.11
2019-05-16T00:25:52.134Z,10.18
2019-05-16T00:26:52.179Z,10.14
2019-05-16T00:27:52.127Z,10.16
2019-05-16T00:28:52.227Z,10.20
2019-05-16T00:29:52.090Z,10.11
2019-05-16T00:30:52.202Z,10.02
2019-05-16T00:31:52.072Z,10.09
2019-05-16T00:32:52.132Z,10.09
2019-05-16T00:33:52.084Z,10.07
2019-05-16T00:34:52.137Z,10.02
2019-05-16T00:36:02.474Z,10.09
2019-05-16T00:36:53.018Z,10.09
2019-05-16T00:37:52.045Z,10.11
2019-05-16T00:38:52.478Z,10.04
2019-05-16T00:39:52.061Z,10.02
2019-05-16T00:40:51.975Z,9.96
2019-05-16T00:41:52.070Z,9.99
2019-05-16T00:42:51.952Z,10.07
2019-05-16T00:43:52.020Z,10.06
2019-05-16T00:44:51.936Z,10.06
2019-05-16T00:45:51.995Z,10.02
2019-05-16T00:46:51.903Z,9.98
2019-05-16T00:47:52.009Z,9.96
2019-05-16T00:48:51.956Z,9.96
2019-05-16T00:49:51.975Z,10.06
2019-05-16T00:50:51.871Z,9.96
2019-05-16T00:51:51.957Z,9.99
2019-05-16T00:52:51.869Z,9.99
2019-05-16T00:53:51.978Z,9.91
2019-05-16T00:54:51.850Z,10.01
2019-05-16T00:55:51.866Z,10.01
2019-05-16T00:56:51.800Z,9.95
2019-05-16T00:57:51.874Z,9.89
2019-05-16T00:58:51.807Z,10.01
2019-05-16T00:59:51.824Z,9.89
2019-05-16T01:00:51.773Z,9.86
2019-05-16T01:01:51.824Z,9.92
2019-05-16T01:02:51.733Z,9.92
2019-05-16T01:03:51.853Z,9.88
2019-05-16T01:04:51.710Z,9.93
2019-05-16T01:05:51.749Z,9.92
2019-05-16T01:06:51.694Z,9.89
2019-05-16T01:07:51.748Z,9.91
2019-05-16T01:08:51.674Z,9.85
2019-05-16T01:09:51.820Z,9.85
2019-05-16T01:10:51.801Z,9.93
2019-05-16T01:11:51.696Z,9.81
2019-05-16T01:12:51.627Z,9.89
2019-05-16T01:13:51.679Z,9.85
2019-05-16T01:14:51.652Z,9.83
2019-05-16T01:15:51.710Z,9.88
2019-05-16T01:16:51.599Z,9.80
2019-05-16T01:17:51.619Z,9.77
2019-05-16T01:18:51.574Z,9.80
2019-05-16T01:19:51.656Z,9.83
2019-05-16T01:20:51.540Z,9.81
2019-05-16T01:21:51.631Z,9.80
2019-05-16T01:22:51.517Z,9.78
2019-05-16T01:23:52.470Z,9.86
2019-05-16T01:24:51.635Z,9.86
2019-05-16T01:25:51.583Z,9.81
2019-05-16T01:26:51.487Z,9.89
2019-05-16T01:27:51.591Z,9.85
2019-05-16T01:28:51.454Z,9.78
2019-05-16T01:29:51.519Z,9.83
2019-05-16T01:30:51.428Z,9.81
2019-05-16T01:31:51.502Z,9.83
2019-05-16T01:32:51.458Z,9.80
2019-05-16T01:33:51.532Z,9.83
2019-05-16T01:34:51.438Z,9.80
2019-05-16T01:35:51.428Z,9.78
2019-05-16T01:36:51.361Z,9.81
2019-05-16T01:37:51.444Z,9.91
2019-05-16T01:38:51.342Z,9.80
2019-05-16T01:39:51.378Z,9.81
2019-05-16T01:40:51.326Z,9.81
2019-05-16T01:41:51.388Z,9.80
2019-05-16T01:42:51.308Z,9.86
2019-05-16T01:43:51.392Z,9.80
2019-05-16T01:44:51.322Z,9.80
2019-05-16T01:45:51.292Z,9.85
2019-05-16T01:46:51.278Z,9.81
2019-05-16T01:47:51.314Z,9.81
2019-05-16T01:48:51.232Z,9.77
2019-05-16T01:49:51.330Z,9.77
2019-05-16T01:50:51.242Z,9.83
2019-05-16T01:51:51.243Z,9.77
2019-05-16T01:52:51.196Z,9.67
2019-05-16T01:53:51.270Z,9.70
2019-05-16T01:54:51.173Z,9.70
2019-05-16T01:55:51.288Z,9.62
2019-05-16T01:56:51.159Z,9.70
2019-05-16T01:57:51.176Z,9.77
2019-05-16T01:58:51.122Z,9.70
2019-05-16T01:59:51.211Z,9.73
2019-05-16T02:01:03.307Z,9.71
2019-05-16T02:01:52.091Z,9.71
2019-05-16T02:02:51.093Z,9.65
2019-05-16T02:03:51.113Z,9.70
2019-05-16T02:04:51.065Z,9.67
2019-05-16T02:05:51.182Z,9.80
2019-05-16T02:06:54.771Z,9.77
2019-05-16T02:07:51.136Z,9.74
2019-05-16T02:08:51.011Z,9.68
2019-05-16T02:09:51.061Z,9.74
2019-05-16T02:10:51.019Z,9.73
2019-05-16T02:11:51.093Z,9.75
2019-05-16T02:12:50.968Z,9.65
2019-05-16T02:13:51.079Z,9.65
2019-05-16T02:14:50.945Z,9.65
2019-05-16T02:15:51.028Z,9.65
2019-05-16T02:16:50.937Z,9.68
2019-05-16T02:17:51.012Z,9.67
2019-05-16T02:18:50.903Z,9.67
2019-05-16T02:19:51.016Z,9.70
2019-05-16T02:20:50.908Z,9.59
2019-05-16T02:21:50.928Z,9.59
2019-05-16T02:22:50.855Z,9.60
2019-05-16T02:23:51.644Z,9.63
2019-05-16T02:24:50.851Z,9.67
2019-05-16T02:25:50.885Z,9.60
2019-05-16T02:26:52.512Z,9.63
2019-05-16T02:27:50.868Z,9.65
2019-05-16T02:28:51.181Z,9.62
2019-05-16T02:29:50.884Z,9.65
2019-05-16T02:30:51.782Z,9.52
2019-05-16T02:31:51.526Z,9.60
2019-05-16T02:32:52.253Z,9.55
2019-05-16T02:33:51.328Z,9.53
2019-05-16T02:34:51.403Z,9.52
2019-05-16T02:35:55.106Z,9.62
2019-05-16T02:37:10.283Z,9.62
2019-05-16T02:37:55.124Z,9.59
2019-05-16T02:38:54.937Z,9.62
2019-05-16T02:39:51.417Z,9.62
2019-05-16T02:40:54.885Z,9.49
2019-05-16T02:41:52.013Z,9.55
2019-05-16T02:42:51.403Z,9.53
2019-05-16T02:43:50.907Z,9.55
2019-05-16T02:44:51.280Z,9.53
2019-05-16T02:45:52.072Z,9.55
2019-05-16T02:46:50.961Z,9.53
2019-05-16T02:47:51.353Z,9.49
2019-05-16T02:48:51.868Z,9.50
2019-05-16T02:49:50.729Z,9.56
2019-05-16T02:50:51.444Z,9.56
2019-05-16T02:51:51.250Z,9.53
2019-05-16T02:52:51.716Z,9.50
2019-05-16T02:53:51.200Z,9.55
2019-05-16T02:54:51.803Z,9.44
2019-05-16T02:55:51.627Z,9.40
2019-05-16T02:56:50.794Z,9.35
2019-05-16T02:57:51.079Z,9.41
2019-05-16T02:58:52.127Z,9.35
2019-05-16T02:59:51.116Z,9.42
2019-05-16T03:00:51.444Z,9.41
2019-05-16T03:01:52.083Z,9.41
2019-05-16T03:02:50.611Z,9.44
2019-05-16T03:03:51.609Z,9.37
2019-05-16T03:04:51.783Z,9.42
2019-05-16T03:05:50.888Z,9.40
2019-05-16T03:06:51.286Z,9.44
2019-05-16T03:07:52.172Z,9.34
2019-05-16T03:08:50.849Z,9.32
2019-05-16T03:09:51.353Z,9.26
2019-05-16T03:10:51.995Z,9.23
2019-05-16T03:11:50.948Z,9.24
2019-05-16T03:12:51.373Z,9.27
2019-05-16T03:13:51.307Z,9.30
2019-05-16T03:14:54.375Z,9.22
2019-05-16T03:15:50.911Z,9.16
2019-05-16T03:16:50.749Z,9.22
2019-05-16T03:17:50.809Z,9.15
2019-05-16T03:18:51.614Z,9.23
2019-05-16T03:19:51.045Z,9.19
2019-05-16T03:20:50.973Z,9.17
2019-05-16T03:21:50.968Z,9.26
2019-05-16T03:22:51.951Z,9.19
2019-05-16T03:23:50.845Z,9.17
2019-05-16T03:24:51.538Z,9.17
2019-05-16T03:25:50.763Z,9.23
2019-05-16T03:26:51.462Z,9.16
2019-05-16T03:27:51.258Z,9.22
2019-05-16T03:28:52.184Z,9.17
2019-05-16T03:29:50.732Z,9.16
2019-05-16T03:30:54.708Z,9.19
2019-05-16T03:31:54.125Z,9.19
2019-05-16T03:32:54.697Z,9.19
2019-05-16T03:33:58.698Z,9.12
2019-05-16T03:34:54.708Z,9.15
2019-05-16T03:35:54.368Z,9.20
2019-05-16T03:36:54.389Z,9.12
2019-05-16T03:37:57.007Z,9.22
2019-05-16T03:38:51.045Z,9.16
2019-05-16T03:39:51.471Z,9.17
2019-05-16T03:40:50.992Z,9.13
2019-05-16T03:41:50.713Z,9.20
2019-05-16T03:42:51.836Z,9.08
2019-05-16T03:43:50.757Z,9.13
2019-05-16T03:44:51.277Z,9.17
2019-05-16T03:45:52.194Z,9.12
2019-05-16T03:46:51.878Z,9.08
2019-05-16T03:47:51.161Z,9.15
2019-05-16T03:48:52.018Z,9.12
2019-05-16T03:49:51.769Z,9.17
2019-05-16T03:50:50.789Z,9.10
2019-05-16T03:51:50.582Z,9.12
2019-05-16T03:52:50.813Z,9.17
2019-05-16T03:53:50.760Z,9.10
2019-05-16T03:54:50.689Z,9.08
2019-05-16T03:55:51.830Z,9.10
2019-05-16T03:56:51.419Z,9.13
2019-05-16T03:57:51.646Z,9.06
2019-05-16T03:58:50.950Z,9.03
2019-05-16T03:59:51.815Z,9.00
2019-05-16T04:00:52.223Z,9.00
2019-05-16T04:01:51.127Z,8.98
2019-05-16T04:02:52.327Z,8.94
2019-05-16T04:03:51.132Z,8.98
2019-05-16T04:04:51.051Z,8.89
2019-05-16T04:05:52.557Z,8.89
2019-05-16T04:06:50.697Z,8.89
2019-05-16T04:07:53.051Z,8.88
2019-05-16T04:08:51.215Z,8.76
2019-05-16T04:09:50.759Z,8.85
2019-05-16T04:10:52.248Z,8.78
2019-05-16T04:11:50.974Z,8.75
2019-05-16T04:12:51.343Z,8.64
2019-05-16T04:13:50.777Z,8.70
2019-05-16T04:14:51.322Z,8.65
2019-05-16T04:15:52.351Z,8.67
2019-05-16T04:16:51.047Z,8.65
2019-05-16T04:17:51.262Z,8.68
2019-05-16T04:18:51.352Z,8.55
2019-05-16T04:19:50.836Z,8.55
2019-05-16T04:20:52.333Z,8.55
2019-05-16T04:21:51.102Z,8.42
2019-05-16T04:22:51.249Z,8.52
2019-05-16T04:23:50.573Z,8.50
2019-05-16T04:24:51.269Z,8.49
2019-05-16T04:25:52.535Z,8.52
2019-05-16T04:26:51.641Z,8.39
2019-05-16T04:27:50.140Z,8.47
2019-05-16T04:28:51.388Z,8.50
2019-05-16T04:29:51.335Z,8.37
2019-05-16T04:30:50.807Z,8.46
2019-05-16T04:31:50.868Z,8.42
2019-05-16T04:32:51.121Z,8.40
2019-05-16T04:33:51.678Z,8.40
2019-05-16T04:34:51.142Z,8.37
2019-05-16T04:35:52.699Z,8.37
2019-05-16T04:36:51.444Z,8.43
2019-05-16T04:37:51.277Z,8.42
2019-05-16T04:38:51.192Z,8.47
2019-05-16T04:39:50.653Z,8.39
2019-05-16T04:40:51.527Z,8.39
2019-05-16T04:41:50.860Z,8.42
2019-05-16T04:42:51.324Z,8.42
2019-05-16T04:43:50.558Z,8.39
2019-05-16T04:44:51.506Z,8.40
2019-05-16T04:45:52.289Z,8.36
2019-05-16T04:46:51.003Z,8.36
2019-05-16T04:47:51.145Z,8.32
2019-05-16T04:48:50.778Z,8.32
2019-05-16T04:49:51.996Z,8.34
2019-05-16T04:50:51.571Z,8.37
2019-05-16T04:51:51.674Z,8.39
2019-05-16T04:52:51.722Z,8.34
2019-05-16T04:53:50.963Z,8.40
2019-05-16T04:54:51.191Z,8.39
2019-05-16T04:55:51.747Z,8.40
2019-05-16T04:56:51.315Z,8.32
2019-05-16T04:57:51.138Z,8.37
2019-05-16T04:58:51.390Z,8.36
2019-05-16T04:59:50.921Z,8.32
2019-05-16T05:00:51.800Z,8.42
2019-05-16T05:01:51.117Z,8.43
2019-05-16T05:02:51.875Z,8.37
2019-05-16T05:04:01.711Z,8.37
2019-05-16T05:04:50.933Z,8.40
2019-05-16T05:05:51.382Z,8.46
2019-05-16T05:06:51.319Z,8.54
2019-05-16T05:07:51.089Z,8.39
2019-05-16T05:08:57.933Z,8.55
2019-05-16T05:09:51.351Z,8.57
2019-05-16T05:11:52.002Z,8.54
2019-05-16T05:12:51.435Z,8.54
2019-05-16T05:13:50.650Z,8.45
2019-05-16T05:14:51.050Z,8.58
2019-05-16T05:15:50.893Z,8.57
2019-05-16T05:16:50.720Z,8.63
2019-05-16T05:17:50.282Z,8.60
2019-05-16T05:18:51.521Z,8.71
2019-05-16T05:19:50.684Z,8.80
2019-05-16T05:20:51.743Z,8.70
2019-05-16T05:21:51.471Z,8.86
2019-05-16T05:22:49.982Z,8.88
2019-05-16T05:23:50.894Z,9.03
2019-05-16T05:24:50.798Z,9.10
2019-05-16T05:25:51.204Z,9.16
2019-05-16T05:26:50.363Z,9.15
2019-05-16T05:27:50.098Z,9.17
2019-05-16T05:28:50.803Z,9.26
2019-05-16T05:29:50.317Z,9.30
2019-05-16T05:30:50.293Z,9.38
2019-05-16T05:31:54.269Z,9.42
2019-05-16T05:32:50.309Z,9.40
2019-05-16T05:33:50.717Z,9.35
2019-05-16T05:34:50.306Z,9.41
2019-05-16T05:35:50.679Z,9.42
2019-05-16T05:36:51.090Z,9.53
2019-05-16T05:37:50.726Z,9.53
2019-05-16T05:38:52.810Z,9.53
2019-05-16T05:39:50.391Z,9.58
2019-05-16T05:40:51.075Z,9.65
2019-05-16T05:41:50.436Z,9.60
2019-05-16T05:42:50.454Z,9.65
2019-05-16T05:43:50.374Z,9.68
2019-05-16T05:44:50.667Z,9.80
2019-05-16T05:45:51.056Z,9.77
2019-05-16T05:46:51.081Z,9.81
2019-05-16T05:47:50.555Z,9.83
2019-05-16T05:48:50.545Z,9.80
2019-05-16T05:49:49.870Z,9.85
2019-05-16T05:50:50.678Z,9.95
2019-05-16T05:51:50.038Z,9.98
2019-05-16T05:52:50.535Z,9.86
2019-05-16T05:53:50.862Z,9.93
2019-05-16T05:54:50.279Z,9.91
2019-05-16T05:55:51.110Z,9.91
2019-05-16T05:56:50.117Z,9.99
2019-05-16T05:57:50.636Z,9.95
2019-05-16T05:58:50.975Z,10.02
2019-05-16T05:59:49.808Z,9.99
2019-05-16T06:00:51.549Z,10.10
2019-05-16T06:01:51.576Z,10.11
2019-05-16T06:02:50.685Z,10.10
2019-05-16T06:03:50.506Z,10.20
2019-05-16T06:04:50.211Z,10.09
2019-05-16T06:05:50.464Z,10.20
2019-05-16T06:07:50.930Z,10.24
2019-05-16T06:08:50.252Z,10.20
2019-05-16T06:09:55.407Z,10.20
2019-05-16T06:10:50.490Z,10.16
2019-05-16T06:11:50.287Z,10.20
2019-05-16T06:12:50.091Z,10.16
2019-05-16T06:13:49.969Z,10.11
2019-05-16T06:14:50.464Z,10.11
2019-05-16T06:15:50.626Z,10.22
2019-05-16T06:16:50.662Z,10.16
2019-05-16T06:17:50.769Z,10.17
2019-05-16T06:18:50.269Z,10.24
2019-05-16T06:19:49.798Z,10.20
2019-05-16T06:20:50.859Z,10.32
2019-05-16T06:21:50.308Z,10.34
2019-05-16T06:22:50.727Z,10.29
2019-05-16T06:23:50.653Z,10.38
2019-05-16T06:24:50.472Z,10.44
2019-05-16T06:25:50.533Z,10.43
2019-05-16T06:26:50.299Z,10.49
2019-05-16T06:27:50.965Z,10.58
2019-05-16T06:28:50.490Z,10.49
2019-05-16T06:29:49.704Z,10.66
2019-05-16T06:30:51.032Z,10.63
2019-05-16T06:31:49.662Z,10.57
2019-05-16T06:32:50.042Z,10.58
2019-05-16T06:33:50.230Z,10.54
2019-05-16T06:34:50.559Z,10.63
2019-05-16T06:35:50.903Z,10.65
2019-05-16T06:36:50.688Z,10.63
2019-05-16T06:37:50.019Z,10.57
2019-05-16T06:38:49.807Z,10.60
2019-05-16T06:39:50.088Z,10.62
2019-05-16T06:40:49.931Z,10.58
2019-05-16T06:41:50.722Z,10.63
2019-05-16T06:42:50.779Z,10.65
2019-05-16T06:43:50.493Z,10.66
2019-05-16T06:44:50.234Z,10.52
2019-05-16T06:45:50.988Z,10.46
2019-05-16T06:47:06.151Z,10.44
2019-05-16T06:47:50.402Z,10.46
2019-05-16T06:48:50.399Z,10.42
2019-05-16T06:49:47.980Z,10.38
2019-05-16T06:50:51.117Z,10.31
2019-05-16T06:51:47.936Z,10.28
2019-05-16T06:52:50.197Z,10.22
2019-05-16T06:53:49.816Z,10.28
2019-05-16T06:54:53.732Z,10.18
2019-05-16T06:55:49.802Z,10.20
2019-05-16T06:56:50.792Z,10.16
2019-05-16T06:57:50.102Z,10.20
2019-05-16T06:58:51.459Z,10.26
2019-05-16T06:59:49.884Z,10.28
2019-05-16T07:00:51.702Z,10.31
2019-05-16T07:01:49.872Z,10.29
2019-05-16T07:02:49.909Z,10.29
2019-05-16T07:03:47.815Z,10.39
2019-05-16T07:04:50.445Z,10.39
2019-05-16T07:05:50.050Z,10.51
2019-05-16T07:06:55.978Z,10.54
2019-05-16T07:07:50.826Z,10.55
2019-05-16T07:08:50.523Z,10.68
2019-05-16T07:09:58.084Z,10.62
2019-05-16T07:10:50.711Z,10.63
2019-05-16T07:11:50.300Z,10.69
2019-05-16T07:12:50.178Z,10.73
2019-05-16T07:13:51.756Z,10.63
2019-05-16T07:14:50.330Z,10.65
2019-05-16T07:15:50.207Z,10.51
2019-05-16T07:16:49.622Z,10.52
2019-05-16T07:17:47.782Z,10.49
2019-05-16T07:18:50.406Z,10.57
2019-05-16T07:19:50.038Z,10.51
2019-05-16T07:20:47.628Z,10.49
2019-05-16T07:21:47.697Z,10.54
2019-05-16T07:22:50.132Z,10.57
2019-05-16T07:23:47.666Z,10.69
2019-05-16T07:24:47.604Z,10.62
2019-05-16T07:25:50.257Z,10.69
2019-05-16T07:26:49.819Z,10.57
2019-05-16T07:27:47.647Z,10.62
2019-05-16T07:28:47.561Z,10.54
2019-05-16T07:29:47.578Z,10.66
2019-05-16T07:30:49.906Z,10.66
2019-05-16T07:31:47.564Z,10.62
2019-05-16T07:32:49.775Z,10.55
2019-05-16T07:33:50.053Z,10.57
2019-05-16T07:34:49.698Z,10.52
2019-05-16T07:35:47.491Z,10.57
2019-05-16T07:36:50.038Z,10.60
2019-05-16T07:37:49.819Z,10.68
2019-05-16T07:38:47.454Z,10.75
2019-05-16T07:39:47.520Z,10.80
2019-05-16T07:40:47.410Z,10.72
2019-05-16T07:41:47.432Z,10.76
2019-05-16T07:42:47.375Z,10.75
2019-05-16T07:43:47.491Z,10.78
2019-05-16T07:44:50.403Z,10.80
2019-05-16T07:45:47.472Z,10.70
2019-05-16T07:46:47.342Z,10.72
2019-05-16T07:47:47.371Z,10.78
2019-05-16T07:48:47.343Z,10.90
2019-05-16T07:49:47.301Z,10.87
2019-05-16T07:50:49.877Z,10.84
2019-05-16T07:51:49.693Z,10.91
2019-05-16T07:52:47.278Z,11.08
2019-05-16T07:53:47.344Z,11.08
2019-05-16T07:54:47.256Z,11.38
2019-05-16T07:55:47.326Z,11.28
2019-05-16T07:56:47.235Z,11.31
2019-05-16T07:57:47.346Z,11.41
2019-05-16T07:58:47.209Z,11.51
2019-05-16T07:59:47.279Z,11.54
2019-05-16T08:00:56.726Z,11.49
2019-05-16T08:01:53.748Z,11.51
2019-05-16T08:02:50.413Z,11.49
2019-05-16T08:03:47.147Z,11.59
2019-05-16T08:04:47.218Z,11.59
2019-05-16T08:05:47.139Z,11.70
2019-05-16T08:06:47.275Z,11.82
2019-05-16T08:07:47.121Z,11.79
2019-05-16T08:08:47.218Z,11.84
2019-05-16T08:09:47.121Z,11.90
2019-05-16T08:10:47.135Z,12.01
2019-05-16T08:11:47.064Z,12.07
2019-05-16T08:12:47.130Z,12.07
2019-05-16T08:13:47.065Z,12.13
2019-05-16T08:14:49.995Z,12.11
2019-05-16T08:15:47.025Z,12.25
2019-05-16T08:16:47.060Z,12.26
2019-05-16T08:17:46.991Z,12.23
2019-05-16T08:18:47.098Z,12.37
2019-05-16T08:19:47.012Z,12.37
2019-05-16T08:20:47.080Z,12.46
2019-05-16T08:21:46.961Z,12.49
2019-05-16T08:22:46.997Z,12.48
2019-05-16T08:23:46.938Z,12.62
2019-05-16T08:24:47.008Z,12.73
2019-05-16T08:25:46.956Z,12.71
2019-05-16T08:26:47.034Z,12.73
2019-05-16T08:27:46.892Z,12.84
2019-05-16T08:28:46.989Z,12.95
2019-05-16T08:29:46.894Z,13.04
2019-05-16T08:30:46.957Z,13.22
2019-05-16T08:31:46.852Z,13.31
2019-05-16T08:32:46.877Z,13.38
2019-05-16T08:33:46.819Z,13.25
2019-05-16T08:34:46.910Z,13.24
2019-05-16T08:35:46.842Z,13.29
2019-05-16T08:36:46.896Z,13.10
2019-05-16T08:37:47.229Z,12.95
2019-05-16T08:38:46.836Z,12.92
2019-05-16T08:39:46.764Z,12.92
2019-05-16T08:41:04.384Z,12.94
2019-05-16T08:41:51.597Z,13.12
2019-05-16T08:42:46.880Z,13.13
2019-05-16T08:43:46.716Z,13.35
2019-05-16T08:44:46.745Z,13.28
2019-05-16T08:45:46.711Z,13.27
2019-05-16T08:46:53.279Z,13.24
2019-05-16T08:47:47.697Z,13.59
2019-05-16T08:48:46.777Z,13.71
2019-05-16T08:49:46.663Z,13.72
2019-05-16T08:50:53.836Z,13.65
2019-05-16T08:51:52.114Z,13.68
2019-05-16T08:52:52.339Z,13.66
2019-05-16T08:53:50.284Z,13.53
2019-05-16T08:54:47.041Z,13.59
2019-05-16T08:55:46.603Z,13.61
2019-05-16T08:56:46.634Z,13.87
2019-05-16T08:57:46.555Z,13.68
2019-05-16T08:58:46.649Z,13.62
2019-05-16T08:59:46.542Z,13.68
2019-05-16T09:00:46.681Z,13.73
2019-05-16T09:01:56.455Z,13.69
2019-05-16T09:02:47.524Z,13.90
2019-05-16T09:03:46.573Z,14.16
2019-05-16T09:04:46.487Z,14.21
2019-05-16T09:05:46.584Z,14.27
2019-05-16T09:06:46.503Z,14.23
2019-05-16T09:07:46.613Z,14.16
2019-05-16T09:08:46.440Z,14.09
2019-05-16T09:09:51.544Z,14.01
2019-05-16T09:10:59.800Z,13.88
2019-05-16T09:11:48.764Z,13.84
2019-05-16T09:12:47.747Z,13.81
2019-05-16T09:13:47.713Z,13.81
2019-05-16T09:14:48.104Z,13.73
2019-05-16T09:15:48.216Z,13.91
2019-05-16T09:16:47.771Z,14.04
2019-05-16T09:17:47.470Z,14.16
2019-05-16T09:18:46.451Z,14.21
2019-05-16T09:19:47.142Z,14.29
2019-05-16T09:20:46.423Z,14.29
2019-05-16T09:21:50.416Z,14.29
2019-05-16T09:22:48.089Z,14.24
2019-05-16T09:23:47.042Z,14.29
2019-05-16T09:24:48.186Z,14.30
2019-05-16T09:25:48.823Z,14.13
2019-05-16T09:26:47.338Z,14.13
2019-05-16T09:27:47.036Z,14.23
2019-05-16T09:28:48.187Z,14.24
2019-05-16T09:29:47.224Z,14.16
2019-05-16T09:30:47.662Z,14.05
2019-05-16T09:32:07.248Z,13.96
2019-05-16T09:32:48.116Z,14.05
2019-05-16T09:33:47.380Z,13.88
2019-05-16T09:34:54.539Z,13.83
2019-05-16T09:35:49.575Z,13.81
2019-05-16T09:36:48.163Z,13.83
2019-05-16T09:37:47.335Z,13.79
2019-05-16T09:38:48.556Z,13.69
2019-05-16T09:39:48.077Z,13.72
2019-05-16T09:40:47.758Z,13.76
2019-05-16T09:41:53.305Z,13.71
2019-05-16T09:42:47.473Z,13.83
2019-05-16T09:43:48.774Z,13.87
2019-05-16T09:44:47.585Z,14.02
2019-05-16T09:45:47.310Z,14.01
2019-05-16T09:46:47.121Z,14.02
2019-05-16T09:47:48.585Z,14.04
2019-05-16T09:48:47.845Z,14.17
2019-05-16T09:50:47.191Z,14.13
2019-05-16T09:51:46.629Z,14.23
2019-05-16T09:52:47.282Z,14.19
2019-05-16T09:53:47.115Z,14.23
2019-05-16T09:54:46.888Z,14.27
2019-05-16T09:55:47.077Z,14.27
2019-05-16T09:56:46.450Z,14.23
2019-05-16T09:57:46.838Z,14.27
2019-05-16T09:58:46.748Z,14.17
2019-05-16T09:59:46.510Z,14.09
2019-05-16T10:00:47.288Z,14.01
2019-05-16T10:01:47.723Z,13.96
2019-05-16T10:02:47.514Z,14.08
2019-05-16T10:03:47.833Z,14.11
2019-05-16T10:04:47.386Z,14.20
2019-05-16T10:06:46.940Z,13.96
2019-05-16T10:07:47.068Z,14.16
2019-05-16T10:08:46.398Z,14.09
2019-05-16T10:09:50.022Z,14.24
2019-05-16T10:10:45.781Z,14.23
2019-05-16T10:11:49.159Z,14.48
2019-05-16T10:12:46.783Z,14.61
2019-05-16T10:13:47.107Z,14.82
2019-05-16T10:14:47.020Z,14.93
2019-05-16T10:15:47.243Z,15.03
2019-05-16T10:16:47.753Z,15.12
2019-05-16T10:17:47.718Z,15.20
2019-05-16T10:18:47.604Z,15.31
2019-05-16T10:19:47.567Z,15.28
2019-05-16T10:20:45.665Z,15.23
2019-05-16T10:21:45.690Z,15.23
2019-05-16T10:22:46.933Z,15.31
2019-05-16T10:23:46.976Z,15.27
2019-05-16T10:24:46.785Z,15.23
2019-05-16T10:25:48.009Z,15.18
2019-05-16T10:26:47.281Z,15.18
2019-05-16T10:27:47.532Z,14.85
2019-05-16T10:28:46.805Z,14.61
2019-05-16T10:29:48.135Z,14.53
2019-05-16T10:30:47.046Z,14.27
2019-05-16T10:31:52.696Z,14.27
2019-05-16T10:32:47.821Z,14.29
2019-05-16T10:33:47.740Z,14.41
2019-05-16T10:34:46.785Z,14.38
2019-05-16T10:35:47.920Z,14.35
2019-05-16T10:36:47.122Z,14.41
2019-05-16T10:37:46.982Z,14.31
2019-05-16T10:38:48.290Z,14.30
2019-05-16T10:39:46.980Z,14.36
2019-05-16T10:40:47.406Z,14.36
2019-05-16T10:41:46.717Z,14.44
2019-05-16T10:42:47.118Z,14.39
2019-05-16T10:43:47.426Z,14.53
2019-05-16T10:44:47.987Z,14.53
2019-05-16T10:45:46.370Z,14.42
2019-05-16T10:46:47.781Z,14.44
2019-05-16T10:48:46.950Z,14.42
2019-05-16T10:49:47.588Z,14.38
2019-05-16T10:50:47.490Z,14.27
2019-05-16T10:51:47.101Z,14.35
2019-05-16T10:52:48.853Z,14.34
2019-05-16T10:54:05.678Z,14.45
2019-05-16T10:54:57.094Z,14.46
2019-05-16T10:55:47.615Z,14.57
2019-05-16T10:56:46.668Z,14.63
2019-05-16T10:59:04.966Z,14.69
2019-05-16T11:00:01.857Z,14.64
2019-05-16T11:01:47.209Z,14.38
2019-05-16T11:02:45.331Z,14.34
2019-05-16T11:03:48.902Z,14.26
2019-05-16T11:04:59.241Z,14.20
2019-05-16T11:06:01.661Z,14.21
2019-05-16T11:06:46.579Z,14.12
2019-05-16T11:07:47.877Z,14.21
2019-05-16T11:08:46.616Z,14.30
2019-05-16T11:09:55.790Z,14.30
2019-05-16T11:10:47.643Z,14.20
2019-05-16T11:11:47.665Z,14.08
2019-05-16T11:12:51.001Z,14.13
2019-05-16T11:13:47.238Z,13.79
2019-05-16T11:14:47.661Z,13.76
2019-05-16T11:15:45.040Z,13.69
2019-05-16T11:16:47.433Z,13.71
2019-05-16T11:17:45.052Z,13.69
2019-05-16T11:18:45.061Z,13.63
2019-05-16T11:19:46.569Z,13.53
2019-05-16T11:20:48.945Z,13.55
2019-05-16T11:21:46.832Z,13.38
2019-05-16T11:22:47.569Z,13.29
2019-05-16T11:23:46.981Z,13.31
2019-05-16T11:24:46.975Z,13.19
2019-05-16T11:25:47.039Z,13.24
2019-05-16T11:26:47.193Z,13.21
2019-05-16T11:27:46.856Z,13.17
2019-05-16T11:28:48.401Z,13.32
2019-05-16T11:29:47.150Z,13.36
2019-05-16T11:30:47.411Z,13.35
2019-05-16T11:31:46.822Z,13.35
2019-05-16T11:32:46.940Z,13.35
2019-05-16T11:33:47.570Z,13.39
2019-05-16T11:34:44.991Z,13.47
2019-05-16T11:35:47.336Z,13.54
2019-05-16T11:36:47.547Z,13.62
2019-05-16T11:37:47.275Z,13.62
2019-05-16T11:38:47.511Z,13.72
2019-05-16T11:39:46.612Z,13.93
2019-05-16T11:40:47.296Z,14.01
2019-05-16T11:41:47.346Z,14.11
2019-05-16T11:42:48.701Z,14.20
2019-05-16T11:43:47.382Z,14.27
2019-05-16T11:44:47.568Z,14.44
2019-05-16T11:45:46.697Z,14.49
2019-05-16T11:46:44.735Z,14.52
2019-05-16T11:47:46.866Z,14.67
2019-05-16T11:48:44.764Z,14.82
2019-05-16T11:49:44.669Z,14.95
2019-05-16T11:50:47.611Z,14.98
2019-05-16T11:51:47.152Z,15.00
2019-05-16T11:52:47.389Z,15.18
2019-05-16T11:53:47.517Z,15.13
2019-05-16T11:54:46.911Z,15.05
2019-05-16T11:55:54.103Z,15.09
2019-05-16T11:56:46.380Z,15.04
2019-05-16T11:57:47.372Z,14.97
2019-05-16T11:58:44.584Z,15.00
2019-05-16T11:59:47.041Z,14.98
2019-05-16T12:00:44.614Z,14.90
2019-05-16T12:01:47.252Z,14.74
2019-05-16T12:02:47.552Z,14.63
2019-05-16T12:03:46.809Z,14.53
2019-05-16T12:04:47.077Z,14.44
2019-05-16T12:05:48.270Z,14.31
2019-05-16T12:06:46.695Z,14.20
2019-05-16T12:07:47.928Z,13.86
2019-05-16T12:08:46.631Z,13.72
2019-05-16T12:09:47.979Z,13.55
2019-05-16T12:10:47.210Z,13.35
2019-05-16T12:11:44.540Z,13.17
2019-05-16T12:12:44.445Z,13.07
2019-05-16T12:13:44.528Z,13.12
2019-05-16T12:14:44.408Z,13.07
2019-05-16T12:15:44.456Z,12.99
2019-05-16T12:16:47.026Z,12.94
2019-05-16T12:17:59.065Z,12.95
2019-05-16T12:18:46.357Z,12.91
2019-05-16T12:19:47.522Z,13.03
2019-05-16T12:20:44.367Z,12.99
2019-05-16T12:21:44.409Z,13.09
2019-05-16T12:22:44.319Z,12.89
2019-05-16T12:23:47.126Z,12.94
2019-05-16T12:24:44.305Z,13.07
2019-05-16T12:25:44.393Z,13.32
2019-05-16T12:26:44.326Z,13.38
2019-05-16T12:27:44.316Z,13.69
2019-05-16T12:28:44.259Z,13.93
2019-05-16T12:29:50.152Z,13.98
2019-05-16T12:30:47.274Z,14.19
2019-05-16T12:31:55.207Z,14.23
2019-05-16T12:32:47.026Z,14.23
2019-05-16T12:33:44.254Z,14.30
2019-05-16T12:34:46.227Z,14.23
2019-05-16T12:35:44.259Z,14.17
2019-05-16T12:36:44.207Z,14.27
2019-05-16T12:37:44.272Z,14.27
2019-05-16T12:38:46.608Z,14.27
2019-05-16T12:39:46.870Z,14.24
2019-05-16T12:40:44.128Z,14.24
2019-05-16T12:41:44.225Z,14.27
2019-05-16T12:42:44.096Z,14.30
2019-05-16T12:43:49.672Z,14.29
2019-05-16T12:44:46.887Z,14.45
2019-05-16T12:45:44.138Z,14.44
2019-05-16T12:46:44.055Z,14.53
2019-05-16T12:47:46.793Z,14.56
2019-05-16T12:48:44.049Z,14.63
2019-05-16T12:49:44.167Z,14.69
2019-05-16T12:50:44.025Z,14.71
2019-05-16T12:51:44.076Z,14.67
2019-05-16T12:52:44.020Z,14.71
2019-05-16T12:53:44.086Z,14.67
2019-05-16T12:54:43.986Z,14.74
2019-05-16T12:55:43.999Z,14.74
2019-05-16T12:56:43.958Z,14.79
2019-05-16T12:57:44.034Z,14.71
2019-05-16T12:58:43.930Z,14.69
2019-05-16T13:00:54.009Z,14.87
2019-05-16T13:01:47.971Z,15.00
2019-05-16T13:02:47.107Z,15.00
2019-05-16T13:03:43.876Z,15.13
2019-05-16T13:04:43.954Z,15.25
2019-05-16T13:05:43.848Z,15.20
2019-05-16T13:06:43.863Z,15.27
2019-05-16T13:07:43.860Z,15.22
2019-05-16T13:08:43.903Z,15.20
2019-05-16T13:09:43.803Z,15.31
2019-05-16T13:10:43.906Z,15.15